Airport View

Enter AWOS ICAO identifier for current METAR.

ex. KFNL

KOZR 262356Z AUTO 00000KT 10SM OVC047 09/07 A3005 RMK AO2 RAE11DZB11E12 SLP180 P0000 60001 T00880071 10116 20087 55008 $

27 Jan 2020 00:52

Other Area AWOS: KHEY - KLOR - KEDN - KDHN

TAF KOZR 260000Z 2600/2706 32006KT 9999 FEW050 FEW250 QNH3008INS BECMG 2614/2615 VRB06KT 9999 FEW060 BKN100 QNH3004INS BECMG 2702/2703 15006KT 9000 -RA BKN025 OVC035 QNH2998INS TX14/2619Z TN01/2611Z LAST NO AMDS AFT 2606 NEXT 2708